Wetterstation Vordersexau
Wetterdaten: Woche 09.11.15 - 15.11.15 (KW46)
Datum Zeit Temp. A. Feuchte A. Luftdruck Regen Wind Richtung Taupunkt Windchill Windben
09.11.2015 00:00 17,2 C 63 % 1022,6 hPa 0,0 l/m 0,0 km/h S-SO 10,1 C 17,2 C 0,0 km/h
09.11.2015 01:00 18,8 C 51 % 1022,5 hPa 0,0 l/m 37,6 km/h S-SW 8,4 C 12,2 C 20,9 km/h
09.11.2015 02:00 18,1 C 50 % 1023,2 hPa 0,0 l/m 21,4 km/h W-SW 7,5 C 13,5 C 11,9 km/h
09.11.2015 03:00 17,3 C 51 % 1023,7 hPa 0,0 l/m 5,8 km/h W-NW 7,1 C 17,3 C 3,2 km/h
09.11.2015 04:00 16,1 C 55 % 1024,4 hPa 0,0 l/m 3,2 km/h W-SW 7,1 C 16,1 C 1,8 km/h
09.11.2015 05:00 16,0 C 57 % 1024,9 hPa 0,0 l/m 22,7 km/h SW 7,5 C 10,4 C 12,6 km/h
09.11.2015 06:00 16,4 C 60 % 1024,9 hPa 0,0 l/m 14,3 km/h W 8,6 C 13,1 C 7,9 km/h
09.11.2015 07:00 17,1 C 58 % 1025,5 hPa 0,0 l/m 26,6 km/h W-SW 8,8 C 11,2 C 14,8 km/h
09.11.2015 08:00 17,9 C 60 % 1025,4 hPa 0,0 l/m 16,2 km/h W-SW 10,0 C 14,4 C 9,0 km/h
09.11.2015 09:00 18,9 C 58 % 1025,3 hPa 0,0 l/m 14,9 km/h W 10,5 C 15,9 C 8,3 km/h
09.11.2015 10:00 18,5 C 59 % 1025,7 hPa 0,0 l/m 18,8 km/h S-SW 10,3 C 14,5 C 10,4 km/h
09.11.2015 11:00 18,4 C 62 % 1026,8 hPa 0,0 l/m 10,4 km/h S-SW 11,0 C 16,7 C 5,8 km/h
09.11.2015 12:00 21,1 C 59 % 1025,7 hPa 0,0 l/m 23,3 km/h W-SW 12,8 C 17,1 C 13,0 km/h
09.11.2015 13:00 19,6 C 64 % 1025,9 hPa 0,0 l/m 2,6 km/h W 12,6 C 19,6 C 1,4 km/h
09.11.2015 14:00 19,1 C 67 % 1026,0 hPa 0,0 l/m 4,5 km/h SW 12,8 C 19,1 C 2,5 km/h
09.11.2015 15:00 18,8 C 67 % 1026,4 hPa 0,0 l/m 16,2 km/h SW 12,5 C 15,5 C 9,0 km/h
09.11.2015 16:00 18,3 C 67 % 1026,2 hPa 0,0 l/m 11,0 km/h SW 12,1 C 16,4 C 6,1 km/h
09.11.2015 17:00 15,8 C 73 % 1026,7 hPa 0,0 l/m 1,3 km/h SW 11,0 C 15,8 C 0,7 km/h
09.11.2015 18:00 15,3 C 76 % 1027,3 hPa 0,0 l/m 4,5 km/h SW 11,1 C 15,3 C 2,5 km/h
09.11.2015 19:00 14,4 C 79 % 1027,4 hPa 0,0 l/m 0,0 km/h W 10,8 C 14,4 C 0,0 km/h
09.11.2015 20:00 14,0 C 81 % 1027,8 hPa 0,0 l/m 0,6 km/h SW 10,8 C 14,0 C 0,4 km/h
09.11.2015 21:00 12,4 C 84 % 1027,6 hPa 0,0 l/m 0,0 km/h O-NO 9,8 C 12,4 C 0,0 km/h
09.11.2015 22:00 11,0 C 85 % 1028,0 hPa 0,0 l/m 0,0 km/h S-SW 8,6 C 11,0 C 0,0 km/h
09.11.2015 23:00 13,6 C 83 % 1027,5 hPa 0,0 l/m 13,0 km/h SW 10,8 C 10,2 C 7,2 km/h
10.11.2015 00:00 13,6 C 80 % 1027,6 hPa 0,0 l/m 5,2 km/h SW 10,2 C 13,6 C 2,9 km/h
10.11.2015 01:00 13,4 C 79 % 1027,6 hPa 0,0 l/m 1,3 km/h W 9,8 C 13,4 C 0,7 km/h
10.11.2015 02:00 12,5 C 81 % 1027,5 hPa 0,0 l/m 0,0 km/h W 9,3 C 12,5 C 0,0 km/h
10.11.2015 03:00 12,0 C 83 % 1027,3 hPa 0,0 l/m 6,5 km/h W-SW 9,2 C 12,0 C 3,6 km/h
10.11.2015 04:00 11,9 C 84 % 1027,0 hPa 0,0 l/m 13,6 km/h W 9,3 C 8,0 C 7,6 km/h
10.11.2015 05:00 10,8 C 85 % 1027,2 hPa 0,0 l/m 0,0 km/h NO 8,4 C 10,8 C 0,0 km/h
10.11.2015 06:00 9,0 C 87 % 1026,6 hPa 0,0 l/m 0,0 km/h W-NW 7,0 C 9,0 C 0,0 km/h
10.11.2015 07:00 10,9 C 86 % 1027,2 hPa 0,0 l/m 4,5 km/h S 8,7 C 10,9 C 2,5 km/h
10.11.2015 08:00 10,6 C 85 % 1027,4 hPa 0,0 l/m 0,0 km/h SO 8,2 C 10,6 C 0,0 km/h
10.11.2015 09:00 17,9 C 72 % 1027,7 hPa 0,0 l/m 3,2 km/h S-SO 12,8 C 17,9 C 1,8 km/h
10.11.2015 10:00 19,8 C 60 % 1026,9 hPa 0,0 l/m 0,0 km/h SW 11,8 C 19,8 C 0,0 km/h
10.11.2015 11:00 20,1 C 58 % 1026,5 hPa 0,0 l/m 10,4 km/h SW 11,6 C 18,6 C 5,8 km/h
10.11.2015 12:00 20,3 C 55 % 1026,0 hPa 0,0 l/m 0,6 km/h W-SW 11,0 C 20,3 C 0,4 km/h
10.11.2015 13:00 21,8 C 49 % 1024,9 hPa 0,0 l/m 1,3 km/h W 10,6 C 21,8 C 0,7 km/h
10.11.2015 14:00 23,9 C 42 % 1024,6 hPa 0,0 l/m 3,2 km/h W 10,2 C 23,9 C 1,8 km/h
10.11.2015 15:00 19,9 C 50 % 1024,2 hPa 0,0 l/m 1,3 km/h S-SO 9,2 C 19,9 C 0,7 km/h
10.11.2015 16:00 15,2 C 60 % 1024,1 hPa 0,0 l/m 1,3 km/h NO 7,5 C 15,2 C 0,7 km/h
10.11.2015 17:00 11,3 C 73 % 1024,5 hPa 0,0 l/m 0,0 km/h NO 6,6 C 11,3 C 0,0 km/h
10.11.2015 18:00 9,4 C 78 % 1025,0 hPa 0,0 l/m 0,0 km/h SO 5,8 C 9,4 C 0,0 km/h
10.11.2015 19:00 8,4 C 82 % 1025,2 hPa 0,0 l/m 1,3 km/h O-SO 5,5 C 8,4 C 0,7 km/h
10.11.2015 20:00 7,0 C 84 % 1025,0 hPa 0,0 l/m 0,0 km/h O 4,5 C 7,0 C 0,0 km/h
10.11.2015 21:00 6,3 C 85 % 1025,4 hPa 0,0 l/m 0,0 km/h O-SO 4,0 C 6,3 C 0,0 km/h
10.11.2015 22:00 5,9 C 87 % 1025,6 hPa 0,0 l/m 0,0 km/h O-SO 3,9 C 5,9 C 0,0 km/h
10.11.2015 23:00 5,4 C 87 % 1025,6 hPa 0,0 l/m 0,0 km/h O 3,4 C 5,4 C 0,0 km/h
11.11.2015 00:00 4,9 C 88 % 1025,3 hPa 0,0 l/m 0,0 km/h O 3,1 C 4,9 C 0,0 km/h
11.11.2015 01:00 3,9 C 88 % 1025,6 hPa 0,0 l/m 0,0 km/h O-SO 2,1 C 3,9 C 0,0 km/h
11.11.2015 02:00 4,0 C 88 % 1025,5 hPa 0,0 l/m 0,0 km/h O-SO 2,2 C 4,0 C 0,0 km/h
11.11.2015 03:00 3,1 C 88 % 1025,1 hPa 0,0 l/m 0,0 km/h O-SO 1,3 C 3,1 C 0,0 km/h
11.11.2015 04:00 2,5 C 88 % 1025,5 hPa 0,0 l/m 0,0 km/h SO 0,7 C 2,5 C 0,0 km/h
11.11.2015 05:00 3,0 C 88 % 1025,3 hPa 0,0 l/m 0,0 km/h O-SO 1,2 C 3,0 C 0,0 km/h
11.11.2015 06:00 3,0 C 88 % 1025,2 hPa 0,0 l/m 0,0 km/h O-SO 1,2 C 3,0 C 0,0 km/h
11.11.2015 07:00 2,2 C 88 % 1025,2 hPa 0,0 l/m 3,9 km/h SO 0,4 C 2,2 C 2,2 km/h
11.11.2015 08:00 7,3 C 88 % 1026,1 hPa 0,0 l/m 0,0 km/h O-SO 5,4 C 7,3 C 0,0 km/h
11.11.2015 09:00 7,3 C 88 % 1026,1 hPa 0,0 l/m 0,0 km/h O-SO 5,4 C 7,3 C 0,0 km/h
11.11.2015 10:00 7,3 C 88 % 1026,2 hPa 0,0 l/m 0,0 km/h W 5,4 C 7,3 C 0,0 km/h
11.11.2015 11:00 7,3 C 88 % 1025,8 hPa 0,0 l/m 0,0 km/h W 5,4 C 7,3 C 0,0 km/h
11.11.2015 12:00 0,0 C 0 % 1025,2 hPa 0,0 l/m 0,0 km/h W -60,0 C 0,0 C 0,0 km/h
11.11.2015 13:00 0,0 C 0 % 1024,8 hPa 0,0 l/m 0,0 km/h W -60,0 C 0,0 C 0,0 km/h
11.11.2015 14:00 0,0 C 0 % 1024,2 hPa 0,0 l/m 0,0 km/h W -60,0 C 0,0 C 0,0 km/h
11.11.2015 15:00 0,0 C 0 % 1024,0 hPa 0,0 l/m 0,0 km/h N -60,0 C 0,0 C 0,0 km/h
11.11.2015 16:00 0,0 C 0 % 1024,2 hPa 0,0 l/m 0,0 km/h O-SO -60,0 C 0,0 C 0,0 km/h
11.11.2015 17:00 8,5 C 72 % 1024,2 hPa 0,0 l/m 0,0 km/h O-SO 3,7 C 8,5 C 0,0 km/h
11.11.2015 18:00 6,9 C 82 % 1024,4 hPa 0,0 l/m 0,0 km/h O-SO 4,0 C 6,9 C 0,0 km/h
11.11.2015 19:00 5,8 C 84 % 1024,5 hPa 0,0 l/m 2,6 km/h O-SO 3,3 C 5,8 C 1,4 km/h
11.11.2015 20:00 5,1 C 86 % 1024,6 hPa 0,0 l/m 0,0 km/h O-SO 3,0 C 5,1 C 0,0 km/h
11.11.2015 21:00 4,9 C 87 % 1024,5 hPa 0,0 l/m 0,0 km/h SO 2,9 C 4,9 C 0,0 km/h
11.11.2015 22:00 4,2 C 88 % 1024,8 hPa 0,0 l/m 0,0 km/h O-SO 2,4 C 4,2 C 0,0 km/h
11.11.2015 23:00 4,1 C 88 % 1024,5 hPa 0,0 l/m 0,0 km/h SO 2,3 C 4,1 C 0,0 km/h
12.11.2015 00:00 3,4 C 88 % 1024,9 hPa 0,0 l/m 1,3 km/h O-SO 1,6 C 3,4 C 0,7 km/h
12.11.2015 01:00 3,3 C 88 % 1024,8 hPa 0,0 l/m 0,0 km/h SO 1,5 C 3,3 C 0,0 km/h
12.11.2015 02:00 3,2 C 88 % 1025,1 hPa 0,0 l/m 0,0 km/h O-SO 1,4 C 3,2 C 0,0 km/h
12.11.2015 03:00 3,1 C 88 % 1025,6 hPa 0,0 l/m 0,0 km/h O-SO 1,3 C 3,1 C 0,0 km/h
12.11.2015 04:00 2,9 C 88 % 1025,7 hPa 0,0 l/m 0,0 km/h O 1,1 C 2,9 C 0,0 km/h
12.11.2015 05:00 2,6 C 88 % 1025,8 hPa 0,0 l/m 0,0 km/h O-NO 0,8 C 2,6 C 0,0 km/h
12.11.2015 06:00 1,8 C 88 % 1026,0 hPa 0,0 l/m 0,0 km/h O-NO 0,0 C 1,8 C 0,0 km/h
12.11.2015 07:00 1,2 C 88 % 1026,5 hPa 0,0 l/m 0,0 km/h SO -0,6 C 1,2 C 0,0 km/h
12.11.2015 08:00 6,1 C 87 % 1026,6 hPa 0,0 l/m 2,6 km/h O-SO 4,1 C 6,1 C 1,4 km/h
12.11.2015 09:00 12,4 C 82 % 1026,7 hPa 0,0 l/m 0,0 km/h O-NO 9,4 C 12,4 C 0,0 km/h
12.11.2015 10:00 18,3 C 62 % 1025,8 hPa 0,0 l/m 0,0 km/h W-NW 10,9 C 18,3 C 0,0 km/h
12.11.2015 11:00 18,4 C 59 % 1025,3 hPa 0,0 l/m 0,0 km/h N-NW 10,2 C 18,4 C 0,0 km/h
12.11.2015 12:00 19,0 C 57 % 1024,5 hPa 0,0 l/m 4,5 km/h N 10,3 C 19,0 C 2,5 km/h
12.11.2015 13:00 20,4 C 53 % 1024,0 hPa 0,0 l/m 0,0 km/h W 10,5 C 20,4 C 0,0 km/h
12.11.2015 14:00 22,7 C 47 % 1023,4 hPa 0,0 l/m 0,0 km/h W-SW 10,8 C 22,7 C 0,0 km/h
12.11.2015 15:00 22,4 C 48 % 1023,2 hPa 0,0 l/m 0,0 km/h S-SW 10,8 C 22,4 C 0,0 km/h
12.11.2015 16:00 16,5 C 59 % 1023,0 hPa 0,0 l/m 0,0 km/h S-SW 8,5 C 16,5 C 0,0 km/h
12.11.2015 17:00 9,3 C 77 % 1022,9 hPa 0,0 l/m 0,0 km/h S-SO 5,5 C 9,3 C 0,0 km/h
12.11.2015 18:00 7,4 C 82 % 1023,0 hPa 0,0 l/m 0,0 km/h SO 4,5 C 7,4 C 0,0 km/h
12.11.2015 19:00 6,5 C 85 % 1022,8 hPa 0,0 l/m 0,0 km/h SO 4,2 C 6,5 C 0,0 km/h
12.11.2015 20:00 5,9 C 87 % 1022,5 hPa 0,0 l/m 0,0 km/h O 3,9 C 5,9 C 0,0 km/h
12.11.2015 21:00 5,5 C 87 % 1022,5 hPa 0,0 l/m 0,0 km/h O 3,5 C 5,5 C 0,0 km/h
12.11.2015 22:00 4,5 C 88 % 1022,3 hPa 0,0 l/m 0,0 km/h O 2,7 C 4,5 C 0,0 km/h
12.11.2015 23:00 3,9 C 88 % 1022,3 hPa 0,0 l/m 0,0 km/h O 2,1 C 3,9 C 0,0 km/h
13.11.2015 00:00 3,4 C 88 % 1022,4 hPa 0,0 l/m 0,0 km/h O 1,6 C 3,4 C 0,0 km/h
13.11.2015 01:00 3,2 C 88 % 1022,5 hPa 0,0 l/m 0,0 km/h O 1,4 C 3,2 C 0,0 km/h
13.11.2015 02:00 2,7 C 89 % 1022,5 hPa 0,0 l/m 0,0 km/h O-NO 1,1 C 2,7 C 0,0 km/h
13.11.2015 03:00 2,5 C 88 % 1022,5 hPa 0,0 l/m 0,0 km/h O 0,7 C 2,5 C 0,0 km/h
13.11.2015 04:00 2,3 C 88 % 1023,1 hPa 0,0 l/m 0,0 km/h O-SO 0,5 C 2,3 C 0,0 km/h
13.11.2015 05:00 2,8 C 88 % 1023,3 hPa 0,0 l/m 0,0 km/h O-NO 1,0 C 2,8 C 0,0 km/h
13.11.2015 06:00 2,9 C 87 % 1023,8 hPa 0,0 l/m 0,0 km/h O-NO 1,0 C 2,9 C 0,0 km/h
13.11.2015 07:00 2,9 C 87 % 1025,0 hPa 0,0 l/m 0,0 km/h O-NO 1,0 C 2,9 C 0,0 km/h
13.11.2015 08:00 2,9 C 87 % 1025,5 hPa 0,0 l/m 0,0 km/h S-SO 1,0 C 2,9 C 0,0 km/h
13.11.2015 09:00 7,8 C 86 % 1025,8 hPa 0,0 l/m 0,0 km/h SO 5,6 C 7,8 C 0,0 km/h
13.11.2015 10:00 13,9 C 87 % 1025,8 hPa 0,0 l/m 1,3 km/h W-SW 11,8 C 13,9 C 0,7 km/h
13.11.2015 11:00 16,3 C 71 % 1025,7 hPa 0,0 l/m 1,3 km/h W 11,0 C 16,3 C 0,7 km/h
13.11.2015 12:00 15,2 C 71 % 1025,4 hPa 0,0 l/m 6,5 km/h W-SW 10,0 C 15,2 C 3,6 km/h
13.11.2015 13:00 14,6 C 72 % 1025,2 hPa 0,0 l/m 14,9 km/h W-SW 9,6 C 10,7 C 8,3 km/h
13.11.2015 14:00 14,7 C 70 % 1024,8 hPa 0,0 l/m 14,3 km/h W-SW 9,3 C 11,1 C 7,9 km/h
13.11.2015 15:00 13,5 C 72 % 1024,9 hPa 0,0 l/m 21,4 km/h W-SW 8,6 C 7,4 C 11,9 km/h
13.11.2015 16:00 13,2 C 72 % 1025,1 hPa 0,0 l/m 5,2 km/h SW 8,3 C 13,2 C 2,9 km/h
13.11.2015 17:00 12,9 C 73 % 1025,2 hPa 0,0 l/m 26,6 km/h SW 8,2 C 5,4 C 14,8 km/h
13.11.2015 18:00 12,9 C 75 % 1025,7 hPa 0,0 l/m 21,4 km/h SW 8,6 C 6,6 C 11,9 km/h
13.11.2015 19:00 12,9 C 76 % 1025,6 hPa 0,0 l/m 15,6 km/h W 8,8 C 8,4 C 8,6 km/h
13.11.2015 20:00 12,9 C 76 % 1025,6 hPa 0,0 l/m 23,3 km/h W-SW 8,8 C 6,2 C 13,0 km/h
13.11.2015 21:00 11,8 C 83 % 1026,1 hPa 0,0 l/m 21,4 km/h W-SW 9,0 C 5,2 C 11,9 km/h
13.11.2015 22:00 11,8 C 85 % 1026,8 hPa 0,0 l/m 8,4 km/h W-NW 9,4 C 10,5 C 4,7 km/h
13.11.2015 23:00 10,9 C 87 % 1027,6 hPa 1,7 l/m 3,2 km/h W-NW 8,8 C 10,9 C 1,8 km/h
14.11.2015 00:00 10,1 C 87 % 1028,4 hPa 0,4 l/m 0,0 km/h W-NW 8,0 C 10,1 C 0,0 km/h
14.11.2015 01:00 9,5 C 87 % 1028,9 hPa 0,0 l/m 0,0 km/h W-NW 7,4 C 9,5 C 0,0 km/h
14.11.2015 02:00 8,4 C 88 % 1029,0 hPa 0,0 l/m 0,0 km/h NW 6,5 C 8,4 C 0,0 km/h
14.11.2015 03:00 7,4 C 88 % 1028,9 hPa 0,0 l/m 0,0 km/h NW 5,5 C 7,4 C 0,0 km/h
14.11.2015 04:00 5,6 C 88 % 1028,7 hPa 0,0 l/m 0,0 km/h N-NO 3,8 C 5,6 C 0,0 km/h
14.11.2015 05:00 5,3 C 88 % 1029,3 hPa 0,0 l/m 0,0 km/h N 3,5 C 5,3 C 0,0 km/h
14.11.2015 06:00 4,6 C 88 % 1029,5 hPa 0,0 l/m 0,0 km/h N 2,8 C 4,6 C 0,0 km/h
14.11.2015 07:00 4,3 C 88 % 1029,6 hPa 0,0 l/m 0,0 km/h N 2,5 C 4,3 C 0,0 km/h
14.11.2015 08:00 5,1 C 86 % 1030,0 hPa 0,0 l/m 0,0 km/h N 3,0 C 5,1 C 0,0 km/h
14.11.2015 09:00 6,6 C 85 % 1030,1 hPa 0,0 l/m 0,0 km/h N 4,3 C 6,6 C 0,0 km/h
14.11.2015 10:00 6,6 C 85 % 1029,8 hPa 0,0 l/m 0,0 km/h S 4,3 C 6,6 C 0,0 km/h
14.11.2015 11:00 14,4 C 62 % 1029,2 hPa 0,0 l/m 14,3 km/h W-NW 7,2 C 10,7 C 7,9 km/h
14.11.2015 12:00 15,3 C 56 % 1028,5 hPa 0,0 l/m 7,1 km/h W-SW 6,6 C 14,9 C 4,0 km/h
14.11.2015 13:00 13,9 C 58 % 1028,0 hPa 0,0 l/m 20,1 km/h W 5,8 C 8,3 C 11,2 km/h
14.11.2015 14:00 14,6 C 61 % 1026,9 hPa 0,0 l/m 0,0 km/h W 7,2 C 14,6 C 0,0 km/h
14.11.2015 15:00 12,6 C 60 % 1026,6 hPa 0,4 l/m 1,9 km/h W-SW 5,0 C 12,6 C 1,1 km/h
14.11.2015 16:00 11,1 C 65 % 1026,2 hPa 0,0 l/m 10,4 km/h W-SW 4,8 C 8,6 C 5,8 km/h
14.11.2015 17:00 10,5 C 69 % 1025,5 hPa 0,0 l/m 23,3 km/h W 5,1 C 3,0 C 13,0 km/h
14.11.2015 18:00 10,6 C 69 % 1025,4 hPa 0,0 l/m 6,5 km/h W 5,2 C 10,6 C 3,6 km/h
14.11.2015 19:00 10,4 C 69 % 1025,2 hPa 0,0 l/m 0,0 km/h SW 5,0 C 10,4 C 0,0 km/h
14.11.2015 20:00 10,6 C 70 % 1024,8 hPa 0,0 l/m 11,0 km/h W-SW 5,4 C 7,7 C 6,1 km/h
14.11.2015 21:00 10,7 C 70 % 1024,4 hPa 0,0 l/m 19,4 km/h S-SW 5,5 C 4,4 C 10,8 km/h
14.11.2015 22:00 10,6 C 71 % 1024,1 hPa 0,0 l/m 20,7 km/h SW 5,6 C 3,8 C 11,5 km/h
14.11.2015 23:00 10,4 C 72 % 1023,7 hPa 0,0 l/m 16,8 km/h S-SW 5,6 C 4,9 C 9,4 km/h
15.11.2015 00:00 10,5 C 71 % 1023,5 hPa 0,0 l/m 1,9 km/h S-SW 5,5 C 10,5 C 1,1 km/h
15.11.2015 01:00 10,5 C 68 % 1022,7 hPa 0,0 l/m 7,8 km/h W-SW 4,8 C 9,5 C 4,3 km/h
15.11.2015 02:00 10,8 C 69 % 1022,8 hPa 0,0 l/m 24,6 km/h SW 5,3 C 3,0 C 13,7 km/h
15.11.2015 03:00 10,9 C 70 % 1021,3 hPa 0,0 l/m 13,6 km/h W-SW 5,6 C 6,8 C 7,6 km/h
15.11.2015 04:00 10,9 C 71 % 1021,0 hPa 0,0 l/m 20,7 km/h W-SW 5,9 C 4,2 C 11,5 km/h
15.11.2015 05:00 10,9 C 70 % 1020,8 hPa 0,0 l/m 20,1 km/h SW 5,6 C 4,4 C 11,2 km/h
15.11.2015 06:00 10,8 C 72 % 1020,5 hPa 0,0 l/m 8,4 km/h W-SW 6,0 C 9,4 C 4,7 km/h
15.11.2015 07:00 10,9 C 72 % 1019,9 hPa 0,0 l/m 20,7 km/h W-SW 6,1 C 4,2 C 11,5 km/h
15.11.2015 08:00 11,8 C 68 % 1020,0 hPa 0,0 l/m 11,7 km/h W-SW 6,1 C 8,7 C 6,5 km/h
15.11.2015 09:00 15,0 C 61 % 1020,2 hPa 0,0 l/m 50,5 km/h W-SW 7,5 C 5,3 C 28,1 km/h
15.11.2015 10:00 15,6 C 60 % 1020,3 hPa 0,0 l/m 22,7 km/h W-SW 7,9 C 9,9 C 12,6 km/h
15.11.2015 11:00 16,3 C 57 % 1020,2 hPa 0,0 l/m 26,6 km/h S-SW 7,8 C 10,1 C 14,8 km/h
15.11.2015 12:00 16,7 C 57 % 1019,3 hPa 0,0 l/m 22,7 km/h W 8,1 C 11,4 C 12,6 km/h
15.11.2015 13:00 18,3 C 52 % 1018,7 hPa 0,0 l/m 21,4 km/h W-SW 8,3 C 13,7 C 11,9 km/h
15.11.2015 14:00 19,1 C 49 % 1018,5 hPa 0,0 l/m 27,2 km/h W 8,1 C 13,8 C 15,1 km/h
15.11.2015 15:00 18,6 C 49 % 1018,4 hPa 0,0 l/m 20,7 km/h W 7,7 C 14,3 C 11,5 km/h
15.11.2015 16:00 16,2 C 54 % 1018,4 hPa 0,0 l/m 22,7 km/h SW 6,9 C 10,7 C 12,6 km/h
15.11.2015 17:00 15,1 C 57 % 1018,1 hPa 0,0 l/m 9,7 km/h W 6,6 C 13,4 C 5,4 km/h
15.11.2015 18:00 13,9 C 59 % 1018,0 hPa 0,0 l/m 0,0 km/h N-NO 6,0 C 13,9 C 0,0 km/h
15.11.2015 19:00 12,1 C 65 % 1018,0 hPa 0,0 l/m 0,0 km/h N-NO 5,7 C 12,1 C 0,0 km/h
15.11.2015 20:00 9,9 C 73 % 1018,0 hPa 0,0 l/m 1,9 km/h O-NO 5,3 C 9,9 C 1,1 km/h
15.11.2015 21:00 8,5 C 77 % 1017,8 hPa 0,0 l/m 0,0 km/h O-NO 4,7 C 8,5 C 0,0 km/h
15.11.2015 22:00 7,6 C 81 % 1018,0 hPa 0,0 l/m 0,0 km/h O-SO 4,6 C 7,6 C 0,0 km/h
15.11.2015 23:00 7,1 C 83 % 1018,1 hPa 0,0 l/m 0,0 km/h N-NO 4,4 C 7,1 C 0,0 km/h
Min-Datum _ 11.11.15 11.11.15 15.11.15 - 09.11.15 - 11.11.15 11.11.15 09.11.15
_ Min-Zeit 12:42 12:42 21:42 - 00:42 - 12:42 12:42 00:42
Minimum _ 0,0 C 0 % 1017,8 hPa - 0,0 km/h - -60,0 C 0,0 C 0,0 km/h
Max-Datum _ 10.11.15 13.11.15 14.11.15 13.11.15 15.11.15 - 09.11.15 10.11.15 15.11.15
_ Max-Zeit 14:42 02:42 09:42 23:42 09:42 - 14:42 14:42 09:42
Maximum _ 23,9 C 89 % 1030,1 hPa 1,7 l/m 50,5 km/h
W-SW
- 12,8 C 23,9 C 28,1 km/h
W-SW
Durchschnitt _ 10,7 C 72 % 1024,8 hPa #2,5 l/m 6,1 km/h W-SW 4,4 C 9,3 C 3,4 km/h
www.sexauwetter.de